createdAt,value
2018-06-20T00:00:35.431Z,5.10
2018-06-20T00:03:05.218Z,5.67
2018-06-20T00:05:34.865Z,6.40
2018-06-20T00:08:04.545Z,4.90
2018-06-20T00:10:34.247Z,5.00
2018-06-20T00:13:04.013Z,5.40
2018-06-20T00:15:33.649Z,5.47
2018-06-20T00:18:03.398Z,5.20
2018-06-20T00:20:33.121Z,5.43
2018-06-20T00:23:02.782Z,6.13
2018-06-20T00:25:32.605Z,5.57
2018-06-20T00:28:02.337Z,4.60
2018-06-20T00:30:31.990Z,6.00
2018-06-20T00:33:01.675Z,6.37
2018-06-20T00:35:31.385Z,5.53
2018-06-20T00:38:01.029Z,6.23
2018-06-20T00:40:30.684Z,5.70
2018-06-20T00:43:00.479Z,5.67
2018-06-20T00:45:30.096Z,6.70
2018-06-20T00:47:59.772Z,5.40
2018-06-20T00:50:29.505Z,6.13
2018-06-20T00:52:59.305Z,5.53
2018-06-20T00:55:45.881Z,5.90
2018-06-20T00:58:15.521Z,5.57
2018-06-20T01:00:45.265Z,5.73
2018-06-20T01:03:15.008Z,5.20
2018-06-20T01:05:44.689Z,5.07
2018-06-20T01:08:14.353Z,6.50
2018-06-20T01:10:44.036Z,5.73
2018-06-20T01:13:13.724Z,5.97
2018-06-20T01:15:43.029Z,5.40
2018-06-20T01:18:12.721Z,5.47
2018-06-20T01:20:42.465Z,5.37
2018-06-20T01:23:12.248Z,4.83
2018-06-20T01:25:41.641Z,5.00
2018-06-20T01:28:11.284Z,4.70
2018-06-20T01:30:40.908Z,5.50
2018-06-20T01:33:10.529Z,5.43
2018-06-20T01:35:40.257Z,5.87
2018-06-20T01:38:09.560Z,6.23
2018-06-20T01:40:39.276Z,5.13
2018-06-20T01:43:08.757Z,5.60
2018-06-20T01:45:38.694Z,4.90
2018-06-20T01:48:08.746Z,5.93
2018-06-20T01:50:38.357Z,5.47
2018-06-20T01:53:07.991Z,5.50
2018-06-20T01:55:37.713Z,6.80
2018-06-20T01:58:07.448Z,5.20
2018-06-20T02:00:37.062Z,6.50
2018-06-20T02:03:06.774Z,5.37
2018-06-20T02:05:36.458Z,6.30
2018-06-20T02:08:07.147Z,6.70
2018-06-20T02:10:36.781Z,6.60
2018-06-20T02:13:06.493Z,6.23
2018-06-20T02:15:36.200Z,7.10
2018-06-20T02:18:05.834Z,7.37
2018-06-20T02:20:35.534Z,6.77
2018-06-20T02:23:05.175Z,6.40
2018-06-20T02:25:34.962Z,6.60
2018-06-20T02:28:04.667Z,5.87
2018-06-20T02:30:34.309Z,6.13
2018-06-20T02:33:03.929Z,6.57
2018-06-20T02:35:33.677Z,6.10
2018-06-20T02:38:02.987Z,6.20
2018-06-20T02:40:32.320Z,6.40
2018-06-20T02:43:02.022Z,5.83
2018-06-20T02:45:31.667Z,6.90
2018-06-20T02:48:01.482Z,5.80
2018-06-20T02:50:31.207Z,6.03
2018-06-20T02:53:00.865Z,6.77
2018-06-20T02:55:30.494Z,6.37
2018-06-20T02:58:00.222Z,5.70
2018-06-20T03:00:29.871Z,6.27
2018-06-20T03:02:59.540Z,6.17
2018-06-20T03:05:29.174Z,5.83
2018-06-20T03:07:58.833Z,6.00
2018-06-20T03:10:28.462Z,6.00
2018-06-20T03:12:58.126Z,6.90
2018-06-20T03:15:27.755Z,5.87
2018-06-20T03:17:57.572Z,5.90
2018-06-20T03:20:27.228Z,5.20
2018-06-20T03:22:56.866Z,6.13
2018-06-20T03:25:26.521Z,5.73
2018-06-20T03:27:56.126Z,5.80
2018-06-20T03:30:25.404Z,5.33
2018-06-20T03:32:55.073Z,4.63
2018-06-20T03:35:24.764Z,5.13
2018-06-20T03:37:54.405Z,5.67
2018-06-20T03:40:24.086Z,5.47
2018-06-20T03:42:53.778Z,5.10
2018-06-20T03:45:23.433Z,4.77
2018-06-20T03:47:53.213Z,6.07
2018-06-20T03:50:22.833Z,4.70
2018-06-20T03:52:52.528Z,5.23
2018-06-20T03:55:22.181Z,4.70
2018-06-20T03:57:52.022Z,5.23
2018-06-20T04:00:21.670Z,5.70
2018-06-20T04:02:51.451Z,5.73
2018-06-20T04:05:21.109Z,5.97
2018-06-20T04:07:50.853Z,4.80
2018-06-20T04:10:20.485Z,6.03
2018-06-20T04:12:50.274Z,5.87
2018-06-20T04:15:19.981Z,5.50
2018-06-20T04:17:49.638Z,5.23
2018-06-20T04:20:19.315Z,5.60
2018-06-20T04:22:49.038Z,5.30
2018-06-20T04:25:18.725Z,5.40
2018-06-20T04:27:48.370Z,6.43
2018-06-20T04:30:18.206Z,4.60
2018-06-20T04:32:47.929Z,6.13
2018-06-20T04:35:17.698Z,5.50
2018-06-20T04:37:47.442Z,5.67
2018-06-20T04:40:17.123Z,6.30
2018-06-20T04:42:47.044Z,6.87
2018-06-20T04:45:16.706Z,5.93
2018-06-20T04:47:46.411Z,6.00
2018-06-20T04:50:16.053Z,6.37
2018-06-20T04:52:45.359Z,6.00
2018-06-20T04:55:14.719Z,6.93
2018-06-20T04:57:44.413Z,5.10
2018-06-20T05:00:14.104Z,6.10
2018-06-20T05:02:43.860Z,6.10
2018-06-20T05:05:13.637Z,5.43
2018-06-20T05:07:43.322Z,6.33
2018-06-20T05:10:12.946Z,6.67
2018-06-20T05:12:42.340Z,5.90
2018-06-20T05:15:12.069Z,5.87
2018-06-20T05:17:41.757Z,5.20
2018-06-20T05:20:11.481Z,5.67
2018-06-20T05:22:41.311Z,6.10
2018-06-20T05:25:10.649Z,6.20
2018-06-20T05:27:40.307Z,5.33
2018-06-20T05:30:09.934Z,5.97
2018-06-20T05:32:39.626Z,6.20
2018-06-20T05:35:09.458Z,6.23
2018-06-20T05:37:39.154Z,5.63
2018-06-20T05:40:08.926Z,5.83
2018-06-20T05:42:38.629Z,5.90
2018-06-20T05:45:08.369Z,5.50
2018-06-20T05:47:38.011Z,6.03
2018-06-20T05:50:07.797Z,5.93
2018-06-20T05:52:37.419Z,6.70
2018-06-20T05:55:07.615Z,6.20
2018-06-20T05:57:37.300Z,6.30
2018-06-20T06:00:07.188Z,5.73
2018-06-20T06:02:36.901Z,6.30
2018-06-20T06:05:06.983Z,5.97
2018-06-20T06:07:36.649Z,5.87
2018-06-20T06:10:10.460Z,6.83
2018-06-20T06:12:40.122Z,7.03
2018-06-20T06:15:09.781Z,6.10
2018-06-20T06:17:39.422Z,7.90
2018-06-20T06:20:09.777Z,5.77
2018-06-20T06:22:39.527Z,7.80
2018-06-20T06:25:09.478Z,7.37
2018-06-20T06:27:38.805Z,7.50
2018-06-20T06:30:08.555Z,6.87
2018-06-20T06:32:38.418Z,7.00
2018-06-20T06:35:08.116Z,6.57
2018-06-20T06:37:37.932Z,7.43
2018-06-20T06:40:07.761Z,7.03
2018-06-20T06:42:37.517Z,6.23
2018-06-20T06:45:07.409Z,6.90
2018-06-20T06:47:37.046Z,6.40
2018-06-20T06:50:06.907Z,7.27
2018-06-20T06:52:36.528Z,7.13
2018-06-20T06:55:05.853Z,6.40
2018-06-20T06:57:35.502Z,6.07
2018-06-20T07:00:05.285Z,6.77
2018-06-20T07:02:34.963Z,7.10
2018-06-20T07:05:04.393Z,7.00
2018-06-20T07:07:34.113Z,6.43
2018-06-20T07:10:03.800Z,7.17
2018-06-20T07:12:33.141Z,6.40
2018-06-20T07:15:02.823Z,6.53
2018-06-20T07:17:32.260Z,6.90
2018-06-20T07:20:01.997Z,7.10
2018-06-20T07:22:31.653Z,6.20
2018-06-20T07:25:01.325Z,6.37
2018-06-20T07:27:30.965Z,7.70
2018-06-20T07:30:00.447Z,6.80
2018-06-20T07:32:30.074Z,7.80
2018-06-20T07:34:59.761Z,7.73
2018-06-20T07:37:29.449Z,6.00
2018-06-20T07:39:59.087Z,4.93
2018-06-20T07:42:28.745Z,4.20
2018-06-20T07:44:58.478Z,5.47
2018-06-20T07:47:28.131Z,4.80
2018-06-20T07:49:57.880Z,5.37
2018-06-20T07:52:27.576Z,4.77
2018-06-20T07:54:57.332Z,4.97
2018-06-20T07:57:27.013Z,4.03
2018-06-20T08:00:01.952Z,4.70
2018-06-20T08:02:47.764Z,4.40
2018-06-20T08:05:22.497Z,5.17
2018-06-20T08:07:57.349Z,4.97
2018-06-20T08:10:32.128Z,4.10
2018-06-20T08:13:06.462Z,4.67
2018-06-20T08:15:41.272Z,5.17
2018-06-20T08:18:16.093Z,3.43
2018-06-20T08:20:45.385Z,3.93
2018-06-20T08:23:15.115Z,3.83
2018-06-20T08:25:44.535Z,3.30
2018-06-20T08:28:14.192Z,2.67
2018-06-20T08:30:43.915Z,2.40
2018-06-20T08:33:13.741Z,2.27
2018-06-20T08:35:43.378Z,2.70
2018-06-20T08:38:12.702Z,3.33
2018-06-20T08:40:42.349Z,2.67
2018-06-20T08:43:12.168Z,3.53
2018-06-20T08:45:41.806Z,2.83
2018-06-20T08:48:11.484Z,2.70
2018-06-20T08:50:41.190Z,3.50
2018-06-20T08:53:10.919Z,3.10
2018-06-20T08:55:40.509Z,3.30
2018-06-20T08:58:10.166Z,2.90
2018-06-20T09:00:45.161Z,3.13
2018-06-20T09:03:14.804Z,2.93
2018-06-20T09:05:49.899Z,3.27
2018-06-20T09:08:24.680Z,3.27
2018-06-20T09:10:59.592Z,3.00
2018-06-20T09:13:34.294Z,3.50
2018-06-20T09:16:09.234Z,2.87
2018-06-20T09:18:44.126Z,3.73
2018-06-20T09:21:13.768Z,3.20
2018-06-20T09:23:43.415Z,3.07
2018-06-20T09:26:13.141Z,3.27
2018-06-20T09:28:42.905Z,2.57
2018-06-20T09:31:12.556Z,2.73
2018-06-20T09:33:42.360Z,2.43
2018-06-20T09:36:11.986Z,2.60
2018-06-20T09:38:41.875Z,2.57
2018-06-20T09:41:11.435Z,2.27
2018-06-20T09:43:40.769Z,2.37
2018-06-20T09:46:10.410Z,3.27
2018-06-20T09:48:40.095Z,2.77
2018-06-20T09:51:09.748Z,2.60
2018-06-20T09:53:39.433Z,2.87
2018-06-20T09:56:09.113Z,2.90
2018-06-20T09:58:38.439Z,2.80
2018-06-20T10:01:13.249Z,3.67
2018-06-20T10:03:48.039Z,3.20
2018-06-20T10:06:22.943Z,2.50
2018-06-20T10:08:56.693Z,3.27
2018-06-20T10:11:31.645Z,2.70
2018-06-20T10:14:01.999Z,3.00
2018-06-20T10:16:32.133Z,2.83
2018-06-20T10:19:01.741Z,3.00
2018-06-20T10:21:31.408Z,2.80
2018-06-20T10:24:01.025Z,2.60
2018-06-20T10:26:30.481Z,2.40
2018-06-20T10:29:00.198Z,2.63
2018-06-20T10:31:29.931Z,2.90
2018-06-20T10:33:59.576Z,3.50
2018-06-20T10:36:29.294Z,2.57
2018-06-20T10:38:59.131Z,2.93
2018-06-20T10:41:32.915Z,2.40
2018-06-20T10:44:06.725Z,2.80
2018-06-20T10:46:41.298Z,2.60
2018-06-20T10:49:10.997Z,2.43
2018-06-20T10:51:41.149Z,2.50
2018-06-20T10:54:10.811Z,2.37
2018-06-20T10:56:45.665Z,2.40
2018-06-20T10:59:20.542Z,2.13
2018-06-20T11:01:55.283Z,2.20
2018-06-20T11:04:30.223Z,2.30
2018-06-20T11:07:04.883Z,2.07
2018-06-20T11:09:39.784Z,2.73
2018-06-20T11:12:14.495Z,2.20
2018-06-20T11:14:43.839Z,2.23
2018-06-20T11:17:13.536Z,2.37
2018-06-20T11:19:43.287Z,1.97
2018-06-20T11:22:13.062Z,2.43
2018-06-20T11:24:42.700Z,2.30
2018-06-20T11:27:12.346Z,2.00
2018-06-20T11:29:42.006Z,2.43
2018-06-20T11:32:11.653Z,2.10
2018-06-20T11:34:41.289Z,2.03
2018-06-20T11:37:10.955Z,2.40
2018-06-20T11:39:40.568Z,2.10
2018-06-20T11:42:10.218Z,2.00
2018-06-20T11:44:39.904Z,1.60
2018-06-20T11:47:14.634Z,1.87
2018-06-20T11:49:44.292Z,1.77
2018-06-20T11:52:19.076Z,1.83
2018-06-20T11:54:48.716Z,2.30
2018-06-20T11:57:18.379Z,1.73
2018-06-20T11:59:53.175Z,2.07
2018-06-20T12:02:27.880Z,2.60
2018-06-20T12:05:04.803Z,1.67
2018-06-20T12:07:39.618Z,1.30
2018-06-20T12:10:14.461Z,1.40
2018-06-20T12:13:48.467Z,1.53
2018-06-20T12:16:24.201Z,2.17
2018-06-20T12:18:59.106Z,1.57
2018-06-20T12:21:33.714Z,1.40
2018-06-20T12:24:08.505Z,1.20
2018-06-20T12:26:43.406Z,1.50
2018-06-20T12:29:18.193Z,1.10
2018-06-20T12:31:52.893Z,1.57
2018-06-20T12:34:27.751Z,1.40
2018-06-20T12:37:02.546Z,1.70
2018-06-20T12:39:31.302Z,1.20
2018-06-20T12:42:06.051Z,1.40
2018-06-20T12:44:40.609Z,1.60
2018-06-20T12:47:31.540Z,1.50
2018-06-20T12:50:04.620Z,1.70
2018-06-20T12:52:34.289Z,1.47
2018-06-20T12:55:03.938Z,1.23
2018-06-20T12:57:33.597Z,1.53
2018-06-20T13:00:03.485Z,1.30
2018-06-20T13:02:32.821Z,1.40
2018-06-20T13:05:02.497Z,1.57
2018-06-20T13:07:32.355Z,1.50
2018-06-20T13:10:02.075Z,1.20
2018-06-20T13:12:31.769Z,1.93
2018-06-20T13:15:01.510Z,1.60
2018-06-20T13:17:32.554Z,1.37
2018-06-20T13:20:02.545Z,3.27
2018-06-20T13:22:32.373Z,1.83
2018-06-20T13:25:02.015Z,1.70
2018-06-20T13:27:36.933Z,1.77
2018-06-20T13:30:11.482Z,1.40
2018-06-20T13:32:46.430Z,1.37
2018-06-20T13:35:21.299Z,1.80
2018-06-20T13:37:56.213Z,1.60
2018-06-20T13:40:31.116Z,1.80
2018-06-20T13:43:05.888Z,1.73
2018-06-20T13:45:41.695Z,1.43
2018-06-20T13:48:20.091Z,1.60
2018-06-20T13:50:52.013Z,1.20
2018-06-20T13:53:22.872Z,1.87
2018-06-20T13:55:52.677Z,1.50
2018-06-20T13:58:22.552Z,1.53
2018-06-20T14:00:52.333Z,2.37
2018-06-20T14:03:23.326Z,1.73
2018-06-20T14:05:52.746Z,1.93
2018-06-20T14:08:22.397Z,1.83
2018-06-20T14:10:52.087Z,1.70
2018-06-20T14:13:21.853Z,1.50
2018-06-20T14:15:51.482Z,1.67
2018-06-20T14:18:21.187Z,2.10
2018-06-20T14:20:56.121Z,1.53
2018-06-20T14:23:25.768Z,1.67
2018-06-20T14:25:55.479Z,1.63
2018-06-20T14:28:25.165Z,1.47
2018-06-20T14:30:59.676Z,1.80
2018-06-20T14:33:34.671Z,1.70
2018-06-20T14:36:09.497Z,1.67
2018-06-20T14:38:44.550Z,2.70
2018-06-20T14:41:15.110Z,2.00
2018-06-20T14:44:15.429Z,1.90
2018-06-20T14:46:44.851Z,2.23
2018-06-20T14:49:14.230Z,1.70
2018-06-20T14:51:43.918Z,1.60
2018-06-20T14:54:13.649Z,1.40
2018-06-20T14:56:43.401Z,2.23
2018-06-20T14:59:13.057Z,1.50
2018-06-20T15:01:42.767Z,1.40
2018-06-20T15:04:12.556Z,2.30
2018-06-20T15:06:42.371Z,1.20
2018-06-20T15:09:12.030Z,1.10
2018-06-20T15:11:41.861Z,2.03
2018-06-20T15:14:11.555Z,1.50
2018-06-20T15:16:49.417Z,1.50
2018-06-20T15:19:19.077Z,1.57
2018-06-20T15:21:48.708Z,1.60
2018-06-20T15:24:18.012Z,1.70
2018-06-20T15:26:52.601Z,1.47
2018-06-20T15:29:27.558Z,2.87
2018-06-20T15:32:02.413Z,1.80
2018-06-20T15:34:37.237Z,2.50
2018-06-20T15:37:11.882Z,2.70
2018-06-20T15:39:41.779Z,8.50
2018-06-20T15:42:11.412Z,2.23
2018-06-20T15:44:41.163Z,1.57
2018-06-20T15:47:10.808Z,2.23
2018-06-20T15:49:40.474Z,1.67
2018-06-20T15:52:10.230Z,2.00
2018-06-20T15:54:39.852Z,2.20
2018-06-20T15:57:09.470Z,2.00
2018-06-20T15:59:38.803Z,2.67
2018-06-20T16:02:08.470Z,1.87
2018-06-20T16:04:38.169Z,2.00
2018-06-20T16:07:07.913Z,1.20
2018-06-20T16:09:42.376Z,1.20
2018-06-20T16:12:11.945Z,1.20
2018-06-20T16:14:41.304Z,1.20
2018-06-20T16:17:11.232Z,1.40
2018-06-20T16:19:46.137Z,1.23
2018-06-20T16:22:21.033Z,1.60
2018-06-20T16:24:55.846Z,1.57
2018-06-20T16:27:30.577Z,2.03
2018-06-20T16:30:05.147Z,1.33
2018-06-20T16:32:34.904Z,1.37
2018-06-20T16:35:04.662Z,1.30
2018-06-20T16:37:34.425Z,1.17
2018-06-20T16:40:04.129Z,1.40
2018-06-20T16:42:33.905Z,1.40
2018-06-20T16:45:03.546Z,1.90
2018-06-20T16:47:32.942Z,1.83
2018-06-20T16:50:02.843Z,1.70
2018-06-20T16:52:32.635Z,1.43
2018-06-20T16:55:02.403Z,1.63
2018-06-20T16:57:32.033Z,1.97
2018-06-20T17:00:02.183Z,1.60
2018-06-20T17:02:36.501Z,1.23
2018-06-20T17:05:06.162Z,5.77
2018-06-20T17:07:36.055Z,2.27
2018-06-20T17:10:06.422Z,1.77
2018-06-20T17:12:41.326Z,2.77
2018-06-20T17:15:15.983Z,1.40
2018-06-20T17:17:50.957Z,1.50
2018-06-20T17:20:25.758Z,1.50
2018-06-20T17:23:00.725Z,1.70
2018-06-20T17:25:31.501Z,1.20
2018-06-20T17:28:01.296Z,1.73
2018-06-20T17:30:31.029Z,2.10
2018-06-20T17:33:00.738Z,1.67
2018-06-20T17:35:30.405Z,1.40
2018-06-20T17:37:59.868Z,1.90
2018-06-20T17:40:29.562Z,1.50
2018-06-20T17:42:59.366Z,1.50
2018-06-20T17:45:29.074Z,1.53
2018-06-20T17:47:58.751Z,1.80
2018-06-20T17:50:28.553Z,1.60
2018-06-20T17:52:58.252Z,1.27
2018-06-20T17:55:28.095Z,1.70
2018-06-20T17:57:57.811Z,2.17
2018-06-20T18:00:27.548Z,1.60
2018-06-20T18:02:58.133Z,1.60
2018-06-20T18:05:33.023Z,1.70
2018-06-20T18:08:07.836Z,8.77
2018-06-20T18:10:42.472Z,1.60
2018-06-20T18:13:12.147Z,2.70
2018-06-20T18:15:46.915Z,2.60
2018-06-20T18:18:16.627Z,2.17
2018-06-20T18:20:46.329Z,2.63
2018-06-20T18:23:16.040Z,3.83
2018-06-20T18:25:45.729Z,3.10
2018-06-20T18:28:15.459Z,1.63
2018-06-20T18:30:45.275Z,2.90
2018-06-20T18:33:15.028Z,4.50
2018-06-20T18:35:44.715Z,2.23
2018-06-20T18:38:14.659Z,1.80
2018-06-20T18:40:44.374Z,4.33
2018-06-20T18:43:14.337Z,3.00
2018-06-20T18:45:44.110Z,2.83
2018-06-20T18:48:18.777Z,3.00
2018-06-20T18:50:48.596Z,8.07
2018-06-20T18:53:18.347Z,3.53
2018-06-20T18:55:48.269Z,2.77
2018-06-20T18:58:23.229Z,2.60
2018-06-20T19:00:57.990Z,2.37
2018-06-20T19:03:32.730Z,1.77
2018-06-20T19:06:07.805Z,5.20
2018-06-20T19:08:42.798Z,3.40
2018-06-20T19:11:12.569Z,2.90
2018-06-20T19:13:42.362Z,4.90
2018-06-20T19:16:12.369Z,1.90
2018-06-20T19:18:42.167Z,1.70
2018-06-20T19:21:12.698Z,2.00
2018-06-20T19:23:42.414Z,1.37
2018-06-20T19:26:12.157Z,1.90
2018-06-20T19:28:41.907Z,3.90
2018-06-20T19:31:11.627Z,2.50
2018-06-20T19:33:41.346Z,4.50
2018-06-20T19:36:11.100Z,5.67
2018-06-20T19:38:40.811Z,6.23
2018-06-20T19:41:10.519Z,3.60
2018-06-20T19:43:44.894Z,3.07
2018-06-20T19:46:15.075Z,2.40
2018-06-20T19:48:45.103Z,2.53
2018-06-20T19:51:14.934Z,2.47
2018-06-20T19:53:44.621Z,1.80
2018-06-20T19:56:13.961Z,2.67
2018-06-20T19:58:43.630Z,3.70
2018-06-20T20:01:13.375Z,7.23
2018-06-20T20:03:43.085Z,2.83
2018-06-20T20:06:12.802Z,2.70
2018-06-20T20:08:42.556Z,4.07
2018-06-20T20:11:12.217Z,5.70
2018-06-20T20:13:42.930Z,4.70
2018-06-20T20:16:12.599Z,3.10
2018-06-20T20:18:43.450Z,4.60
2018-06-20T20:21:13.166Z,4.80
2018-06-20T20:23:42.804Z,3.80
2018-06-20T20:26:12.501Z,4.10
2018-06-20T20:28:42.179Z,4.70
2018-06-20T20:31:12.039Z,5.53
2018-06-20T20:33:41.693Z,3.30
2018-06-20T20:36:11.401Z,3.90
2018-06-20T20:38:41.044Z,5.60
2018-06-20T20:41:10.632Z,5.20
2018-06-20T20:43:40.317Z,6.03
2018-06-20T20:46:10.041Z,5.67
2018-06-20T20:48:39.721Z,6.60
2018-06-20T20:51:09.361Z,4.27
2018-06-20T20:53:38.772Z,3.60
2018-06-20T20:56:08.474Z,5.20
2018-06-20T20:58:37.863Z,3.90
2018-06-20T21:01:07.631Z,3.50
2018-06-20T21:03:37.431Z,3.50
2018-06-20T21:06:07.150Z,2.80
2018-06-20T21:08:36.822Z,3.97
2018-06-20T21:11:06.463Z,3.27
2018-06-20T21:13:36.175Z,3.23
2018-06-20T21:16:09.593Z,2.77
2018-06-20T21:18:39.246Z,2.90
2018-06-20T21:21:08.969Z,3.03
2018-06-20T21:23:38.799Z,3.40
2018-06-20T21:26:08.428Z,3.10
2018-06-20T21:28:37.777Z,3.17
2018-06-20T21:31:07.708Z,3.53
2018-06-20T21:33:37.446Z,3.30
2018-06-20T21:36:07.141Z,3.63
2018-06-20T21:38:36.867Z,2.97
2018-06-20T21:41:06.659Z,4.07
2018-06-20T21:43:36.314Z,3.67
2018-06-20T21:46:06.353Z,3.73
2018-06-20T21:48:35.969Z,3.30
2018-06-20T21:51:05.664Z,3.27
2018-06-20T21:53:35.404Z,3.73
2018-06-20T21:56:04.787Z,3.47
2018-06-20T21:58:34.409Z,3.30
2018-06-20T22:01:04.192Z,4.30
2018-06-20T22:03:33.853Z,3.80
2018-06-20T22:06:03.619Z,3.30
2018-06-20T22:08:33.040Z,3.50
2018-06-20T22:11:02.861Z,4.07
2018-06-20T22:13:32.657Z,3.50
2018-06-20T22:16:02.417Z,3.67
2018-06-20T22:18:32.244Z,3.60
2018-06-20T22:21:02.127Z,4.63
2018-06-20T22:23:31.899Z,4.37
2018-06-20T22:26:01.815Z,4.27
2018-06-20T22:28:31.605Z,4.20
2018-06-20T22:31:01.386Z,4.10
2018-06-20T22:33:31.458Z,4.40
2018-06-20T22:36:01.255Z,4.27
2018-06-20T22:38:31.026Z,4.53
2018-06-20T22:41:00.585Z,3.70
2018-06-20T22:43:30.838Z,5.07
2018-06-20T22:46:00.990Z,4.00
2018-06-20T22:48:30.447Z,4.30
2018-06-20T22:51:00.286Z,3.43
2018-06-20T22:53:29.997Z,4.30
2018-06-20T22:55:59.896Z,3.77
2018-06-20T22:58:29.605Z,4.10
2018-06-20T23:00:59.409Z,4.30
2018-06-20T23:03:29.348Z,5.00
2018-06-20T23:05:59.135Z,4.20
2018-06-20T23:08:28.851Z,4.93
2018-06-20T23:10:58.700Z,4.40
2018-06-20T23:13:28.384Z,5.13
2018-06-20T23:15:58.317Z,4.10
2018-06-20T23:18:28.282Z,4.67
2018-06-20T23:20:57.872Z,5.37
2018-06-20T23:23:27.761Z,4.33
2018-06-20T23:25:57.929Z,5.63
2018-06-20T23:28:27.967Z,4.40
2018-06-20T23:30:57.805Z,3.97
2018-06-20T23:33:27.526Z,3.57
2018-06-20T23:35:57.370Z,4.53
2018-06-20T23:38:27.165Z,4.20
2018-06-20T23:40:56.878Z,4.77
2018-06-20T23:43:26.562Z,4.47
2018-06-20T23:45:56.607Z,4.20
2018-06-20T23:48:26.323Z,4.37
2018-06-20T23:50:56.049Z,5.00
2018-06-20T23:53:25.757Z,4.23
2018-06-20T23:55:56.467Z,4.53
2018-06-20T23:58:26.221Z,4.47
